Tiempo atmosférico en la estación meteorológica de Castellón de la Plana, Almazora, Castelló/Castellón (35 m.)



Fecha
DESCASC
Temp. máxima en grados centígrados (hora)
DESCASC
Temp. mínima en grados centígrados (hora)
DESCASC
Temp. media en grados centígrados
DESCASC
Racha de viento máxima en m/sg (hora)
DESCASC
Velocidad máxima media en intervalos de 10 minutos(hora)
DESCASC
Precipitaciones diarias en mm
DESCASC
Precipitaciones de 00:00 a 06:00 en mm
DESCASC
Precipitaciones de 06:00 a 12:00 en mm
DESCASC
Precipitaciones de 12:00 a 18:00 en mm
DESCASC
Precipitaciones de 18:00 a 24:00 en mm
DESCASC

Gráficas

Temp. máximas Temp. mínimas Temp. medias Precipitaciones Rachas de viento máximas Velocidades máximas media en intervalos de 10 minutos

Datos horarios

Fecha y hora oficial Temperatura (ºC) Velocidad del viento (km/h) Dirección del viento Racha (km/h) Dirección de racha Precipitación (mm) Presión (hPa) Tendencia (hPa) Humedad (%)
2020-07-08 23:00:00 25.4 8 Sur 23 Sur 0 1011.9 1.2 72
2020-07-08 22:00:00 26.3 11 Sudeste 30 Este 0 1010.2 -1.9 68
2020-07-08 21:00:00 26.5 5 Nordeste 10 Sur 0 1010.2 -0.7 67
2020-07-08 20:00:00 26.8 7 Nordeste 15 Sur 0 1010.7 0 70
2020-07-08 19:00:00 26.8 10 Sudoeste 29 Sudeste 0 1012.1 1 69
2020-07-08 18:00:00 28.5 8 Sur 21 Sudeste 0 1010.9 -0.3 59
2020-07-08 17:00:00 29.3 9 Sudeste 20 Sudeste 0 1010.7 -0.4 57
2020-07-08 16:00:00 29.9 11 Sudeste 21 Este 0 1011.1 -1.8 55
2020-07-08 15:00:00 29.3 10 Sudeste 30 Sudeste 0 1011.2 -0.5 59
2020-07-08 14:00:00 28.1 13 Este 28 Este 0 1011.1 -0.4 62
2020-07-08 13:00:00 30.1 9 Sur 23 Este 0 1012.9 1 56
2020-07-08 12:00:00 28.4 11 Este 22 Sudeste 0 1011.7 0.1 60
2020-07-08 11:00:00 28.5 6 Este 14 Este 0 1011.5 0.4 56
2020-07-08 10:00:00 26.7 6 Oeste 12 Oeste 0 1011.9 1 66
2020-07-08 09:00:00 25.3 6 Noroeste 11 Norte 0 1011.6 1 74
2020-07-08 08:00:00 23.1 4 Noroeste 9 Noroeste 0 1011.1 0.5 80
2020-07-08 07:00:00 22.6 4 Noroeste 10 Noroeste 0 1010.9 0.4 81
2020-07-08 06:00:00 22.4 4 Noroeste 9 Noroeste 0 1010.6 -0.2 81
2020-07-08 05:00:00 22.5 5 Oeste 8 Noroeste 0 1010.6 -0.6 80
2020-07-08 04:00:00 23.3 3 Noroeste 5 Norte 0 1010.5 -- 80
2020-07-08 03:00:00 23.3 2 Norte 5 Norte 0 1010.8 -- 79
2020-07-08 02:00:00 23.8 2 Norte 5 Sudoeste 0 1011.2 -- 78
2020-07-08 01:00:00 24.2 2 Sur 5 Norte 0 1011.1 -- 78
2020-07-08 00:00:00 24.3 3 Sudoeste 4 Nordeste 0 1010.8 -- 77
2020-07-07 23:00:00 24.8 3 Nordeste 7 Nordeste 0 1010.6 -- 75
2020-07-07 22:00:00 25.3 3 Nordeste 10 Este 0 1010.1 -- 73
2020-07-07 21:00:00 25.8 3 Este 15 Este 0 1009.8 -- 69
2020-07-07 20:00:00 26.7 7 Este 19 Sudeste 0 1009.6 -0.5 64
2020-07-07 19:00:00 26.8 5 Nordeste 19 Sudeste 0 1009.6 -0.6 63
2020-07-07 18:00:00 27.4 11 Sudeste 22 Sudeste 0 1009.8 -0.5 60
2020-07-07 17:00:00 28 12 Este 23 Este 0 1010.1 -0.3 57
2020-07-07 16:00:00 28.4 15 Este 30 Sudeste 0 1010.2 -0.3 55
2020-07-07 15:00:00 28.3 14 Este 27 Sudeste 0 1010.3 -0.3 54
2020-07-07 14:00:00 28.7 13 Este 28 Este 0 1010.4 -0.1 52
2020-07-07 13:00:00 28.3 12 Este 24 Este 0 1010.5 0 52
2020-07-07 12:00:00 28.3 9 Este 23 Este 0 1010.6 0.4 54
2020-07-07 11:00:00 28 9 Este 21 Este 0 1010.5 0.7 53
2020-07-07 10:00:00 27.2 8 Este 21 Sudeste 0 1010.5 1 55
2020-07-07 09:00:00 26.5 6 Este 18 Este 0 1010.2 0.9 62
2020-07-07 08:00:00 24.4 8 Nordeste 18 Nordeste 0 1009.8 0.8 72
2020-07-07 07:00:00 22.2 5 Noroeste 9 Noroeste 0 1009.5 -- 61
2020-07-07 06:00:00 22.7 5 Noroeste 9 Oeste 0 1009.3 -- 61
2020-07-07 05:00:00 23 3 Noroeste 6 Noroeste 0 1009 -- 59
2020-07-07 04:00:00 23.5 0 Calma 7 Noroeste 0 1009 -- 53
2020-07-07 03:00:00 23.9 5 Noroeste 10 Noroeste 0 1009.2 -- 50
2020-07-07 02:00:00 24.4 6 Noroeste 12 Noroeste 0 1009.4 -- 54
2020-07-07 01:00:00 25 4 Noroeste 9 Noroeste 0 1009.7 -- 53
2020-07-07 00:00:00 25.4 4 Noroeste 8 Noroeste 0 1010.1 -- 59
2020-07-06 23:00:00 26 2 Sur 6 Sudeste 0 1010.3 -- 63
2020-07-06 22:00:00 26.8 3 Sur 8 Sudoeste 0 1009.6 -- 58
2020-07-06 21:00:00 28.3 4 Sudeste 14 Sudeste 0 1009.2 -- 47
2020-07-06 20:00:00 29.6 7 Sudeste 17 Este 0 1009.1 -- 38
2020-07-06 19:00:00 30.3 9 Sudeste 18 Sudeste 0 1009.2 -- 39
2020-07-06 18:00:00 30.8 10 Sudeste 19 Este 0 1009.3 -- 45
2020-07-06 17:00:00 32 10 Sur 21 Sudeste 0 1009.6 -- 49
2020-07-06 16:00:00 31.2 11 Este 21 Este 0 1009.9 -- 56
2020-07-06 15:00:00 31 11 Este -- -- -- 1010.3 -- 52
2020-07-06 14:00:00 -- -- -- -- -- -- -- -- --
2020-07-06 13:00:00 -- -- -- -- -- -- -- -- --
2020-07-06 12:00:00 -- -- -- -- -- -- -- -- --
2020-07-06 11:00:00 -- -- -- -- -- -- -- -- --
2020-07-06 10:00:00 -- -- -- -- -- -- -- -- --
2020-07-06 09:00:00 26.2 6 Norte 10 Norte 0 1010.7 -- 54
2020-07-06 08:00:00 23.2 5 Noroeste 9 Noroeste 0 1010.4 -- 60
2020-07-06 07:00:00 22.1 6 Noroeste 13 Noroeste 0 1010.2 -- 65
2020-07-06 06:00:00 22.2 6 Oeste 13 Oeste 0 1010 -- 67
2020-07-06 05:00:00 22.5 7 Oeste 14 Oeste 0 1010.5 -- 67
2020-07-06 04:00:00 22.2 4 Oeste 12 Oeste 0 1010.9 -- 68
2020-07-06 03:00:00 22.4 6 Oeste 11 Oeste 0 1011.2 -- 69
2020-07-06 02:00:00 22.9 4 Noroeste 8 Noroeste 0 1011.6 -- 67
2020-07-06 01:00:00 23.6 4 Noroeste 7 Sudoeste 0 1012.1 -- 67
2020-07-06 00:00:00 24 4 Sudoeste 6 Sudoeste 0 1012.2 -- 70
2020-07-05 23:00:00 24.4 0 Calma 8 Sur 0 1012.4 -- 67
2020-07-05 22:00:00 25.3 5 Sudoeste 12 Sur 0 1012.1 -- 64
2020-07-05 21:00:00 26.6 8 Sur 17 Sur 0 1012.1 -- 55
2020-07-05 20:00:00 27.9 9 Sur 19 Sur 0 1012.1 -- 48
2020-07-05 19:00:00 28.9 10 Sur 19 Sur 0 1012.2 -- 46
2020-07-05 18:00:00 29.7 10 Sur 22 Sur 0 1012.7 -- 46
2020-07-05 17:00:00 30.3 11 Sur 23 Sudeste 0 1013.3 -- 42
2020-07-05 16:00:00 30.7 12 Sudeste 24 Sudeste 0 1013.7 -- 44
2020-07-05 15:00:00 30.6 12 Sudeste 24 Este 0 1014.1 -- 44
2020-07-05 14:00:00 30.5 10 Sudeste 21 Sudeste 0 1014.4 -- 44
2020-07-05 13:00:00 29.9 10 Sudeste 21 Este 0 1014.7 -- 55
2020-07-05 12:00:00 29.4 9 Sudeste 19 Sudeste 0 1014.8 -- 54
2020-07-05 11:00:00 29.7 8 Sur 14 Sur 0 1014.8 -- 49
2020-07-05 10:00:00 28.2 3 Sudeste 11 Noroeste 0 1014.9 -- 30
2020-07-05 09:00:00 24.4 9 Oeste 16 Oeste 0 1014.7 -- 41
2020-07-05 08:00:00 21.4 10 Oeste 17 Noroeste 0 1014.6 -- 60
2020-07-05 07:00:00 20.7 8 Oeste 19 Oeste 0 1014.3 -- 69
2020-07-05 06:00:00 21 8 Oeste 16 Oeste 0 1014.4 -- 76
2020-07-05 05:00:00 21 10 Oeste 16 Oeste 0 1014.3 -- 73
2020-07-05 04:00:00 21.8 9 Oeste 15 Oeste 0 1014.8 -- 83
2020-07-05 03:00:00 22.3 7 Oeste 13 Noroeste 0 1015.3 -- 84
2020-07-05 02:00:00 22.7 4 Noroeste 6 Oeste 0 1015.7 -- 84
2020-07-05 01:00:00 23 3 Sudoeste 5 Oeste 0 1016 -- 84
2020-07-05 00:00:00 23.4 3 Sudoeste 6 Sur 0 1016.2 -- 82
2020-07-04 23:00:00 24 4 Sur 7 Sur 0 1016 -- 80
2020-07-04 22:00:00 24.8 5 Sur 12 Sur 0 1015.4 -- 75
2020-07-04 21:00:00 25.5 8 Sur 12 Sudeste 0 1014.9 -- 72
2020-07-04 20:00:00 25.9 5 Sudeste 12 Sudeste 0 1014.6 -- 71
2020-07-04 19:00:00 26.1 7 Sudeste 17 Este 0 1014.5 -- 67
2020-07-04 18:00:00 26.5 8 Sudeste 17 Sudeste 0 1014.7 -- 67
2020-07-04 17:00:00 27.3 10 Sudeste 20 Este 0 1014.9 -- 64
2020-07-04 16:00:00 26.9 9 Sudeste 21 Sur 0 1015.2 -- 66
2020-07-04 15:00:00 27.8 12 Sudeste 24 Este 0 1015.3 -- 63
2020-07-04 14:00:00 28.5 11 Sudeste 22 Este 0 1015.9 -- 59
2020-07-04 13:00:00 27.2 9 Este 27 Este 0 1016 -- 56
2020-07-04 12:00:00 27.8 13 Este 24 Sudeste 0 1015.9 -- 58
2020-07-04 11:00:00 26 7 Este 15 Este 0 1015.7 -- 65
2020-07-04 10:00:00 25.9 4 Sudeste 10 Sudeste 0 1015.4 -- 64
2020-07-04 09:00:00 23.8 4 Noroeste 13 Oeste 0 1015.3 -- 67
2020-07-04 08:00:00 21.4 8 Oeste 17 Oeste 0 1014.8 -- 75
2020-07-04 07:00:00 21.1 9 Oeste 13 Oeste 0 1014.6 -- 81
2020-07-04 06:00:00 21.3 6 Oeste 9 Oeste 0 1014.4 -- 84
2020-07-04 05:00:00 21.6 5 Noroeste 8 Noroeste 0 1014.5 -- 85
2020-07-04 04:00:00 21.9 4 Noroeste 8 Norte 0 1014.8 -- 85
2020-07-04 03:00:00 22.7 5 Noroeste 10 Noroeste 0 1014.7 -- 81
2020-07-04 02:00:00 23.3 3 Noroeste 6 Noroeste 0 1014.7 -- 81
2020-07-04 01:00:00 23.6 2 Sudoeste 7 Sur 0 1014.8 -- 81
2020-07-04 00:00:00 23.9 5 Sudoeste 8 Sudoeste 0 1014.9 -- 79
2020-07-03 23:00:00 24.1 5 Sudoeste 9 Oeste 0 1014.5 -- 77
2020-07-03 22:00:00 24.7 6 Sur 11 Sur 0 1013.9 -- 73
2020-07-03 21:00:00 25.2 7 Sur 15 Sur 0 1013.6 -- 68
2020-07-03 20:00:00 26 9 Sur 20 Sur 0 1013 -- 62
2020-07-03 19:00:00 27.1 8 Sudeste 21 Este 0 1012.8 -- 54
2020-07-03 18:00:00 27.6 10 Sudeste 24 Este 0 1012.8 -- 52
2020-07-03 17:00:00 27 12 Este 27 Sudeste 0 1013.1 -- 49
2020-07-03 16:00:00 27.9 14 Sudeste 32 Este 0 1013.4 -- 44
2020-07-03 15:00:00 28.6 13 Sudeste 27 Este 0 1013.6 -- 41
2020-07-03 14:00:00 28.2 11 Sudeste 26 Sudeste 0 1013.7 -- 40
2020-07-03 13:00:00 28.1 10 Sudeste 21 Sudeste 0 1013.8 -- 37
2020-07-03 12:00:00 26.9 8 Sudeste 15 Este 0 1013.6 -- 35
2020-07-03 11:00:00 26.5 5 Sudeste 14 Sudeste 0 1013.2 -- 39
2020-07-03 10:00:00 25.8 5 Norte 9 Norte 0 1012.7 -- 34
2020-07-03 09:00:00 25.4 4 Norte 12 Norte 0 1012.4 -- 35
2020-07-03 08:00:00 24.6 7 Norte 11 Noroeste 0 1011.8 -- 41
2020-07-03 07:00:00 24.8 5 Norte 12 Noroeste 0 1011.5 -- 42
2020-07-03 06:00:00 25.1 3 Nordeste 7 Norte 0 1011 -- 40
2020-07-03 05:00:00 25.1 6 Norte 13 Noroeste 0 1010.7 -- 42
2020-07-03 04:00:00 25.5 5 Noroeste 10 Nordeste 0 1010.6 -- 47
2020-07-03 03:00:00 25.4 5 Nordeste 15 Norte 0 1010.7 -- 66
2020-07-03 02:00:00 25.5 6 Nordeste 13 Norte 0 1010.5 -- 75
2020-07-03 01:00:00 25.2 3 Este 10 Este 0 1010.4 -- 77
2020-07-03 00:00:00 25.2 4 Nordeste 8 Este 0 1009.7 -- 78
2020-07-02 23:00:00 25.4 4 Nordeste 9 Nordeste 0 1009.2 -- 76
2020-07-02 22:00:00 25.7 5 Nordeste 12 Este 0 1008.4 -- 77
2020-07-02 21:00:00 26.4 9 Este 20 Sudeste 0 1007.9 -- 73
2020-07-02 20:00:00 27.3 9 Este 22 Este 0 1007.4 -- 66
2020-07-02 19:00:00 27.9 12 Este 24 Sudeste 0 1007.4 -- 63
2020-07-02 18:00:00 28.7 14 Este 30 Sudeste 0 1007.3 -- 60
2020-07-02 17:00:00 29.5 12 Este 28 Sudeste 0 1007.2 -- 56
2020-07-02 16:00:00 29.4 12 Este 33 Sudeste 0 1007.5 -- 54
2020-07-02 15:00:00 29.6 16 Este 32 Sudeste 0 1007.9 -- 54
2020-07-02 14:00:00 30 13 Este -- -- -- 1008.5 -- 52
2020-07-02 13:00:00 29.8 11 Este 28 Sudeste 0 1008.7 -- 53
2020-07-02 12:00:00 29.2 10 Este 23 Este 0 1008.8 -- 57
2020-07-02 11:00:00 28.7 8 Este 18 Este 0 1008.7 -- 58
2020-07-02 10:00:00 27.3 7 Nordeste 15 Nordeste 0 1008.9 -- 61
2020-07-02 09:00:00 26.6 8 Norte 14 Nordeste 0 1008.7 -- 66
2020-07-02 08:00:00 24.6 6 Noroeste 11 Noroeste 0 1008.1 -- 78
2020-07-02 07:00:00 24 5 Noroeste 11 Oeste 0 1007.7 -- 81
2020-07-02 06:00:00 23.8 5 Noroeste 10 Noroeste 0 1007.4 -- 82
2020-07-02 05:00:00 23.9 4 Noroeste 10 Noroeste 0 1006.8 -- 82
2020-07-02 04:00:00 24.4 6 Noroeste 14 Nordeste 0 1006.9 -- 80
2020-07-02 03:00:00 24.7 6 Norte 10 Nordeste 0 1006.8 -- 82
2020-07-02 02:00:00 25 4 Nordeste 12 Nordeste 0 1006.5 -- 86
2020-07-02 01:00:00 25.2 4 Nordeste 11 Nordeste 0 1006.4 -- 83
2020-07-02 00:00:00 25.3 6 Nordeste 10 Nordeste 0 1006.1 -- 84
2020-07-01 23:00:00 25.9 4 Este 10 Sudeste 0 1005.6 -- 78
2020-07-01 22:00:00 26.6 3 Norte 9 Nordeste 0 1004.8 -- 74
2020-07-01 21:00:00 26.9 5 Este 15 Este 0 1004.7 -- 72
2020-07-01 20:00:00 28.1 6 Este 18 Sudeste 0 1004.8 -- 63
2020-07-01 19:00:00 28.7 10 Este 22 Este 0 1004.6 -- 58
2020-07-01 18:00:00 29.5 10 Sudeste 22 Sudeste 0 1004.7 -- 54
2020-07-01 17:00:00 29.8 11 Este 24 Este 0 1005.1 -- 50
2020-07-01 16:00:00 30.2 10 Este 23 Este 0 1005 -- 50
2020-07-01 15:00:00 30.1 9 Sudeste 23 Sudeste 0 1005.3 -- 50
2020-07-01 14:00:00 31.1 10 Sudeste 23 Sudeste 0 1005.6 -- 47
2020-07-01 13:00:00 30.4 10 Sudeste 22 Este 0 1005.7 -- 51
2020-07-01 12:00:00 30.4 10 Sudeste 20 Este 0 1005.7 -- 50
2020-07-01 11:00:00 29.3 7 Sudeste 14 Sudoeste 0 1005.8 -- 50
2020-07-01 10:00:00 27.5 6 Sudoeste 11 Sudoeste 0 1006.3 -- 63
2020-07-01 09:00:00 24.8 6 Noroeste 16 Noroeste 0 1006.4 -- 69
2020-07-01 08:00:00 21.9 9 Oeste 16 Oeste 0 1006.1 -- 77
2020-07-01 07:00:00 21.6 9 Noroeste 16 Noroeste 0 1005.8 -- 80
2020-07-01 06:00:00 21.8 8 Oeste 13 Oeste 0 1005.6 -- 83
2020-07-01 05:00:00 22.1 8 Oeste 12 Noroeste 0 1005.6 -- 83
2020-07-01 04:00:00 22.3 5 Noroeste 10 Oeste 0 1006 -- 80
2020-07-01 03:00:00 23 3 Noroeste 6 Noroeste 0 1006.3 -- 81
2020-07-01 02:00:00 23.5 4 Noroeste 8 Noroeste 0 1006.7 -- 80
2020-07-01 01:00:00 24.3 4 Noroeste 8 Noroeste 0 1007.1 -- 80
2020-07-01 00:00:00 25 2 Norte 5 Nordeste 0 1007.1 -- 80
2020-06-30 23:00:00 25.1 3 Nordeste 8 Este 0 1007 -- 80
2020-06-30 22:00:00 25.7 6 Este 13 Este 0 1006.7 -- 77
2020-06-30 21:00:00 26.5 8 Este 15 Este 0 1006.4 -- 71
2020-06-30 20:00:00 27.8 8 Este 16 Sudeste 0 1006.2 -- 61
2020-06-30 19:00:00 28.1 8 Este 19 Este 0 1006.5 -- 56
2020-06-30 18:00:00 28.9 11 Sudeste 21 Este 0 1007.3 -- 56
2020-06-30 17:00:00 29 11 Sudeste 25 Este 0 1007.9 -- 55
2020-06-30 16:00:00 29.6 11 Este 25 Sudeste 0 1008.1 -- 52
2020-06-30 15:00:00 29.5 9 Este 23 Este 0 1008.6 -- 53
2020-06-30 14:00:00 29.9 11 Sudeste 22 Sudeste 0 1009.1 -- 50
2020-06-30 13:00:00 29.4 9 Este 22 Este 0 1009.4 -- 53
2020-06-30 12:00:00 28.6 8 Este 16 Sudeste 0 1009.5 -- 58
2020-06-30 11:00:00 27.4 3 Sur 13 Este 0 1009.7 -- 61
2020-06-30 10:00:00 26.9 5 Norte 12 Norte 0 1009.7 -- 62
2020-06-30 09:00:00 25.2 6 Noroeste 10 Noroeste 0 1009.6 -- 72
2020-06-30 08:00:00 23 5 Oeste 9 Oeste 0 1009.7 -- 82
2020-06-30 07:00:00 22.4 4 Noroeste 9 Noroeste 0 1009.3 -- 84
2020-06-30 06:00:00 22 3 Noroeste 7 Noroeste 0 1008.9 -- 86
2020-06-30 05:00:00 22.5 4 Noroeste 7 Noroeste 0 1009 -- 85
2020-06-30 04:00:00 22.9 3 Noroeste 9 Noroeste 0 1009.3 -- 85
2020-06-30 03:00:00 23.1 5 Noroeste 8 Noroeste 0 1009.9 -- 83
2020-06-30 02:00:00 23.7 4 Noroeste 6 Noroeste 0 1010.3 -- 81
2020-06-30 01:00:00 24.3 3 Nordeste 7 Este 0 1010.5 -- 81
2020-06-30 00:00:00 24.5 4 Este 8 Este 0 1010.4 -- 78
2020-06-29 23:00:00 24.8 2 Nordeste 10 Este 0 1010.1 -- 77
2020-06-29 22:00:00 25.2 3 Este 11 Sudeste 0 1009.5 -- 74
2020-06-29 21:00:00 25.9 4 Nordeste 15 Este 0 1009.3 -- 70
2020-06-29 20:00:00 26.9 8 Este 18 Este 0 1009.4 -- 68
2020-06-29 19:00:00 27.5 7 Este 21 Sudeste 0 1009.5 -- 63
2020-06-29 18:00:00 28.1 9 Este 22 Este 0 1009.8 -- 61
2020-06-29 17:00:00 28.4 12 Este 25 Este 0 1010 -- 61
2020-06-29 16:00:00 29 14 Este 35 Sudeste 0 1010.3 -- 59
2020-06-29 15:00:00 29.2 10 Este 26 Sudeste 0 1010.7 -- 55
2020-06-29 14:00:00 29.3 13 Este 24 Sudeste 0 1010.8 -- 56
2020-06-29 13:00:00 28.9 11 Este 21 Este 0 1011.1 -- 55
2020-06-29 12:00:00 28.4 7 Nordeste 16 Este 0 1011.3 -- 59
2020-06-29 11:00:00 28.2 8 Este 15 Este 0 1011.5 -- 58
2020-06-29 10:00:00 26.9 5 Este 15 Este 0 1011.4 -- 68
2020-06-29 09:00:00 25 4 Sudeste 10 Noroeste 0 1011.3 -- 78
2020-06-29 08:00:00 22.2 3 Noroeste 8 Oeste 0 1011.1 -- 83
2020-06-29 07:00:00 21.4 4 Noroeste 10 Noroeste 0 1010.6 -- 84
2020-06-29 06:00:00 21.6 6 Noroeste 10 Noroeste 0 1010.2 -- 84
2020-06-29 05:00:00 21.9 4 Noroeste 7 Noroeste 0 1010.2 -- 83
2020-06-29 04:00:00 22.7 3 Noroeste 7 Noroeste 0 1010.3 -- 82
2020-06-29 03:00:00 23 3 Noroeste 6 Noroeste 0 1010.6 -- 83
2020-06-29 02:00:00 23.5 2 Oeste 7 Sudoeste 0 1011 -- 83
2020-06-29 01:00:00 23.8 4 Sudoeste 7 Sudoeste 0 1011.3 -- 83
2020-06-29 00:00:00 24.3 3 Sudoeste 7 Sudoeste 0 1011.5 -- 81
2020-06-28 23:00:00 24.7 4 Sudoeste 10 Sur 0 1011.5 -- 78
2020-06-28 22:00:00 25.4 6 Sur 10 Sudeste 0 1011 -- 74
2020-06-28 21:00:00 26.2 6 Este 16 Sudeste 0 1010.8 -- 67
2020-06-28 20:00:00 27.3 8 Sudeste 17 Este 0 1010.5 -- 63
2020-06-28 19:00:00 28.2 9 Sudeste 21 Este 0 1010.5 -- 53
2020-06-28 18:00:00 28.5 10 Este 26 Este 0 1010.8 -- 58
2020-06-28 17:00:00 29.6 8 Sudeste 21 Sudeste 0 1010.9 -- 50
2020-06-28 16:00:00 30.1 11 Sudeste 25 Este 0 1011.2 -1.2 47
2020-06-28 15:00:00 29.7 10 Sudeste 23 Sudeste 0 1011.8 -- 51
2020-06-28 14:00:00 29.6 12 Sudeste 21 Este 0 1012.1 -- 52
2020-06-28 13:00:00 29.1 11 Sudeste 22 Sudeste 0 1012.4 -- 55
2020-06-28 12:00:00 28.7 8 Sudeste 19 Este 0 1012.5 -- 57
2020-06-28 11:00:00 28 4 Sudeste 15 Este 0 1012.3 -- 57
2020-06-28 10:00:00 27.4 4 Sudeste 9 Este 0 1012.1 -- 52
2020-06-28 09:00:00 24.7 0 Calma 12 Oeste 0 1011.9 -- 59
2020-06-28 08:00:00 21.4 6 Oeste 10 Noroeste 0 1011.5 -- 71
2020-06-28 07:00:00 20.6 7 Oeste 12 Oeste 0 1011.2 -- 75
2020-06-28 06:00:00 20.9 4 Noroeste 11 Noroeste 0 1011.1 -- 74
2020-06-28 05:00:00 21.7 5 Noroeste 9 Oeste 0 1010.9 -- 70
2020-06-28 04:00:00 22.1 4 Noroeste 9 Sudoeste 0 1010.7 -- 67
2020-06-28 03:00:00 22.4 4 Oeste 8 Noroeste 0 1011 -- 69
2020-06-28 02:00:00 22.9 4 Noroeste 7 Noroeste 0 1011.2 -- 69
2020-06-28 01:00:00 23.7 3 Oeste 7 Oeste 0 1011.1 -- 67
2020-06-28 00:00:00 24.1 0 Calma 6 Sudoeste 0 1010.8 -- 61
2020-06-27 23:00:00 24.6 4 Sudoeste 8 Sudoeste 0 1010.4 -- 69
2020-06-27 22:00:00 25.3 4 Sudoeste 10 Sur 0 1009.6 -- 66
2020-06-27 21:00:00 26.5 7 Sur 13 Sur 0 1009.5 -- 55
2020-06-27 20:00:00 27.9 8 Sur 18 Sudeste 0 1009.2 -- 48
2020-06-27 19:00:00 28.2 6 Sudeste 18 Este 0 1009.1 -- 46
2020-06-27 18:00:00 29.2 10 Sudeste 19 Sudeste 0 1009.4 -- 40
2020-06-27 17:00:00 29.8 10 Sudeste 21 Este 0 1009.2 -- 38
2020-06-27 16:00:00 30 11 Este 21 Sur 0 1009.3 -- 27
2020-06-27 15:00:00 30.1 11 Sudeste 26 Este 0 1009.4 -- 34
2020-06-27 14:00:00 30.4 10 Sudeste 22 Este 0 1009.5 -- 35
2020-06-27 13:00:00 29.8 11 Sudeste 21 Este 0 1009.6 -- 36
2020-06-27 12:00:00 29.6 12 Sudeste 18 Este 0 1009.5 -- 35
2020-06-27 11:00:00 29.2 6 Sur 15 Este 0 1009.2 -- 31
2020-06-27 10:00:00 26.9 3 Noroeste 7 Norte 0 1009.1 -- 38
2020-06-27 09:00:00 23.7 5 Noroeste 14 Oeste 0 1009 -- 56
2020-06-27 08:00:00 21 5 Oeste 16 Oeste 0 1008.9 -- 64
2020-06-27 07:00:00 20.6 7 Noroeste 17 Oeste 0 1008.6 -- 67
2020-06-27 06:00:00 21.2 8 Noroeste 15 Noroeste 0 1008.3 -- 63
2020-06-27 05:00:00 21.8 8 Oeste 12 Noroeste 0 1008.2 -- 65
2020-06-27 04:00:00 22.4 7 Oeste 12 Oeste 0 1008.3 -- 66
2020-06-27 03:00:00 22.7 4 Oeste 8 Noroeste 0 1008.3 -- 70
2020-06-27 02:00:00 22.9 4 Noroeste 6 Noroeste 0 1008.7 -- 73
2020-06-27 01:00:00 23.3 4 Noroeste 9 Noroeste 0 1008.4 -- 72
2020-06-27 00:00:00 24.2 2 Este 13 Este 0.6 1008.4 -- 74
2020-06-26 23:00:00 25.4 0 Calma 8 Sudeste 0 1008.8 -- 56
2020-06-26 22:00:00 25.9 3 Este 12 Nordeste 0 1007.7 -- 53
2020-06-26 21:00:00 26.7 8 Este 15 Este 0 1007.2 -- 45
2020-06-26 20:00:00 28 10 Este 15 Este 0 1006.9 -- 36
2020-06-26 19:00:00 28.8 8 Sudeste 18 Sudeste 0 1006.8 -- 28
2020-06-26 18:00:00 29.8 9 Sudeste 22 Este 0 1007.3 -- 25
2020-06-26 17:00:00 31.3 10 Sur 22 Sur 0 1008.1 -- 22
2020-06-26 16:00:00 31.1 10 Sudeste 20 Sudeste 0 1008.7 -- 22
2020-06-26 15:00:00 31.9 11 Sudeste 24 Sur 0 1008.8 -- 19
2020-06-26 14:00:00 32 13 Sur 23 Sur 0 1009.3 -- 19
2020-06-26 13:00:00 31.6 10 Sudeste 19 Sur 0 1009.5 -- 18
2020-06-26 12:00:00 30.4 9 Sudeste 16 Sur 0 1009.7 -- 24
2020-06-26 11:00:00 28.7 5 Sudeste 13 Sur 0 1009.7 -- 33
2020-06-26 10:00:00 26.8 4 Oeste 11 Oeste 0 1009.9 -- 43
2020-06-26 09:00:00 23.2 9 Oeste 16 Oeste 0 1010 -- 44
2020-06-26 08:00:00 20.5 11 Oeste 18 Oeste 0 1010.1 -- 50
2020-06-26 07:00:00 19.9 9 Oeste 19 Noroeste 0 1010 -- 54
2020-06-26 06:00:00 20.1 10 Oeste 16 Oeste 0 1009.8 -- 54
2020-06-26 05:00:00 20.2 9 Oeste 15 Oeste 0 1009.9 -- 55
2020-06-26 04:00:00 20.7 9 Oeste 14 Oeste 0 1010.3 -- 52
2020-06-26 03:00:00 21.1 8 Noroeste 14 Oeste 0 1010.5 -- 49
2020-06-26 02:00:00 21.7 6 Noroeste 12 Oeste 0 1010.9 -- 47
2020-06-26 01:00:00 22.5 6 Noroeste 10 Oeste 0 1010.8 -- 43
2020-06-26 00:00:00 24 3 Noroeste 6 Nordeste 0 1010.7 -- 40
2020-06-25 23:00:00 25.3 3 Nordeste 9 Este 0 1010.3 -- 38
2020-06-25 22:00:00 26.1 4 Este 9 Sudeste 0 1009.7 -- 32
2020-06-25 21:00:00 27.3 3 Nordeste 11 Este 0 1009.4 -- 31
2020-06-25 20:00:00 28.4 6 Este 16 Sudeste 0 1009.4 -- 28
2020-06-25 19:00:00 29.7 8 Sudeste 19 Sur 0 1008.9 -- 22
2020-06-25 18:00:00 29.2 11 Sudeste 21 Sudeste 0 1009.4 -- 29
2020-06-25 17:00:00 29.6 11 Sudeste 23 Este 0 1009.9 -- 31
2020-06-25 16:00:00 29 13 Sudeste 25 Este 0 1010.4 -- 47
2020-06-25 15:00:00 29.9 12 Sudeste 26 Este 0 1010.5 -- 44
2020-06-25 14:00:00 29.7 11 Este 23 Sudeste 0 1010.6 -- 28
2020-06-25 13:00:00 29.1 12 Este 20 Sudeste 0 1010.9 -- 41
2020-06-25 12:00:00 28.5 6 Este 18 Sudeste 0 1010.9 -- 43
2020-06-25 11:00:00 28.4 6 Este 17 Sudeste 0 1010.7 -- 44
2020-06-25 10:00:00 27.7 5 Sudeste 11 Nordeste 0 1010.5 -- 41
2020-06-25 09:00:00 24.8 4 Noroeste 8 Noroeste 0 1010.4 -- 53
2020-06-25 08:00:00 21.7 3 Noroeste 9 Oeste 0 1010.1 -- 63
2020-06-25 07:00:00 21.1 6 Oeste 11 Oeste 0 1010 -- 66
2020-06-25 06:00:00 21.1 5 Noroeste 14 Noroeste 0 1010.1 -- 65
2020-06-25 05:00:00 21.3 8 Noroeste 17 Oeste 0 1010.1 -- 61
2020-06-25 04:00:00 21.8 10 Oeste 19 Oeste 0 1010.7 -- 61
2020-06-25 03:00:00 21.8 12 Oeste 17 Oeste 0 1011.4 -- 62
2020-06-25 02:00:00 22.5 9 Oeste 14 Noroeste 0 1012 -- 64
2020-06-25 01:00:00 23.5 6 Noroeste 11 Oeste 0 1012.4 -- 67
2020-06-25 00:00:00 24.2 3 Nordeste 9 Este 0 1012.8 -- 68
2020-06-24 23:00:00 24.2 2 Sudeste 9 Sudoeste 0 1012.8 -- 70
2020-06-24 22:00:00 24.5 6 Sudoeste 15 Sur 0 1012.4 -- 66
2020-06-24 21:00:00 25.7 6 Sudeste 15 Sudeste 0 1010.6 -- 55
2020-06-24 20:00:00 26.1 5 Nordeste 13 Sur 0 1010.5 -- 43
2020-06-24 19:00:00 27.6 9 Sur 18 Este 0 1011.6 -- 40
2020-06-24 18:00:00 28.1 11 Sudeste 19 Este 0 1011.3 -- 42
2020-06-24 17:00:00 28.6 10 Sudeste 21 Sudeste 0 1011.1 -- 41
2020-06-24 16:00:00 28.6 12 Sudeste 23 Sur 0 1011.3 -- 37
2020-06-24 15:00:00 30.1 12 Sudeste 27 Este 0 1011.5 -- 34
2020-06-24 14:00:00 29.6 12 Sudeste 21 Sur 0 1011.8 -- 35
2020-06-24 13:00:00 29 11 Sudeste 21 Este 0 1012.1 -- 41
2020-06-24 12:00:00 27.7 6 Sudeste 14 Sur 0 1011.8 -- 46
2020-06-24 11:00:00 27.8 6 Sur 15 Sur 0 1011.5 -- 47
2020-06-24 10:00:00 26.2 3 Sur 9 Sudeste 0 1011.7 -- 55
2020-06-24 09:00:00 23.9 4 Norte 7 Norte 0 1011.1 -- 60
2020-06-24 08:00:00 20.6 4 Noroeste 11 Noroeste 0 1011.6 -- 78
2020-06-24 07:00:00 19.6 5 Oeste 9 Noroeste 0 1011.6 -- 83
2020-06-24 06:00:00 19.8 5 Noroeste 10 Oeste 0 1011.4 -- 82
2020-06-24 05:00:00 20.2 6 Oeste 10 Noroeste 0 1011.5 -- 82
2020-06-24 04:00:00 20.4 4 Noroeste 8 Oeste 0 1011.5 -- 80
2020-06-24 03:00:00 21.2 0 Calma 5 Norte 0 1011.9 -- 80
2020-06-24 02:00:00 21.9 4 Noroeste 7 Oeste 0 1012.2 -- 77
2020-06-24 01:00:00 22.2 4 Sudoeste 9 Sudoeste 0 1012.5 -- 76
2020-06-24 00:00:00 22.9 4 Sudoeste 11 Sur 0 1012.3 -- 78
2020-06-23 23:00:00 23.3 6 Sur 12 Sur 0 1012.1 -- 76
2020-06-23 22:00:00 23.9 4 Sur 12 Sur 0 1011.6 -- 72
2020-06-23 21:00:00 25.1 5 Sur 15 Sudeste 0 1011.4 -- 63
2020-06-23 20:00:00 26.4 8 Sur 20 Sur 0 1011.4 -- 55
2020-06-23 19:00:00 27.2 9 Sur 22 Sudeste 0 1011.3 -- 51
2020-06-23 18:00:00 28 11 Sur 25 Sudeste 0 1011.8 -- 48
2020-06-23 17:00:00 29 13 Sur 24 Sudeste 0 1011.9 -- 45
2020-06-23 16:00:00 29.3 14 Sur 29 Sudeste 0 1012.1 -- 42
2020-06-23 15:00:00 29.6 14 Sur 25 Sur 0 1012.3 -- 39
2020-06-23 14:00:00 29.2 10 Sudeste 24 Este 0 1012.9 -- 47
2020-06-23 13:00:00 29 11 Sudeste 24 Este 0 1013.3 -- 47
2020-06-23 12:00:00 29.1 9 Sur 18 Sudoeste 0 1013.3 -- 46
2020-06-23 11:00:00 27.7 6 Sur 13 Sudeste 0 1013.4 -- 53
2020-06-23 10:00:00 26.1 6 Sudoeste 14 Sur 0 1014 -- 60
2020-06-23 09:00:00 23.7 5 Noroeste 10 Oeste 0 1014.1 -- 72
2020-06-23 08:00:00 21 4 Noroeste 9 Oeste 0 1013.8 -- 81
2020-06-23 07:00:00 20.2 5 Noroeste 8 Noroeste 0 1013.8 -- 82
2020-06-23 06:00:00 20.3 4 Noroeste 11 Oeste 0 1013.6 -- 81
2020-06-23 05:00:00 20.8 4 Noroeste 8 Noroeste 0 1013.6 -- 79
2020-06-23 04:00:00 21 4 Noroeste 8 Oeste 0 1014 -- 80
2020-06-23 03:00:00 21.6 4 Noroeste 6 Oeste 0 1014.3 -- 78
2020-06-23 02:00:00 22.4 6 Sudoeste 8 Sudoeste 0 1014.6 -- 73
2020-06-23 01:00:00 22.7 3 Sudoeste 7 Sudoeste 0 1014.8 -- 75
2020-06-23 00:00:00 23.1 4 Sudoeste 5 Sur 0 1014.9 -- 73
2020-06-22 23:00:00 23.5 3 Sur 7 Sudoeste 0 1014.6 -- 70
2020-06-22 22:00:00 24.3 6 Sur 11 Sur 0 1014 -- 64
2020-06-22 21:00:00 25.5 9 Sur 17 Sur 0 1013.8 -- 55
2020-06-22 20:00:00 27 9 Sur 23 Sudeste 0 1013.6 -- 46
2020-06-22 19:00:00 28 10 Sur 22 Sudeste 0 1013.6 -- 39
2020-06-22 18:00:00 28.8 13 Sur 25 Sudeste 0 1013.9 -- 37
2020-06-22 17:00:00 29.7 13 Sur 23 Sudeste 0 1014.4 -- 42
2020-06-22 16:00:00 29.7 11 Sudeste 26 Este 0 1015 -- 39
2020-06-22 15:00:00 29.7 11 Sudeste 28 Este 0 1015.7 -- 43
2020-06-22 14:00:00 29.9 11 Sudeste 25 Sudeste 0 1016.4 -- 42
2020-06-22 13:00:00 29.6 10 Sudeste 21 Sudeste 0 1016.5 -- 43
2020-06-22 12:00:00 28.5 8 Sudeste 19 Sudeste 0 1016.5 -- 46
2020-06-22 11:00:00 27.4 9 Sudeste 17 Este 0 1016.5 -- 51
2020-06-22 10:00:00 26.1 6 Sudeste 14 Sudeste 0 1016.6 -- 65
2020-06-22 09:00:00 23.9 4 Este 14 Este 0 1016.6 -- 79
2020-06-22 08:00:00 22.5 5 Este 13 Este 0 1016.2 -- 88
2020-06-22 07:00:00 22 5 Este 14 Este 0 1015.8 -- 89
2020-06-22 06:00:00 22.3 5 Este 12 Este 0 1015.4 -- 87
2020-06-22 05:00:00 22.5 3 Nordeste 13 Noroeste 0 1015.4 -- 62
2020-06-22 04:00:00 23.2 5 Noroeste 14 Oeste 0 1015.1 -- 56
2020-06-22 03:00:00 22.9 7 Noroeste 14 Noroeste 0 1015.4 -- 65
2020-06-22 02:00:00 22.8 9 Oeste 17 Noroeste 0 1015.4 -- 67
2020-06-22 01:00:00 23.4 8 Oeste 14 Noroeste 0 1015.5 -- 72
2020-06-22 00:00:00 24.3 6 Oeste 13 Oeste 0 1015.4 -- 68
2020-06-21 23:00:00 24.5 6 Oeste 10 Noroeste 0 1015.3 -- 74
2020-06-21 22:00:00 24.5 4 Sudoeste 10 Sudoeste 0 1014.6 -- 76
2020-06-21 21:00:00 25.9 4 Sur 10 Este 0 1014.4 -- 68
2020-06-21 20:00:00 26.9 4 Sudeste 13 Sudeste 0 1014 -- 58
2020-06-21 19:00:00 27.4 6 Sudeste 17 Sudeste 0 1014 -- 55
2020-06-21 18:00:00 28.1 8 Sudeste 19 Este 0 1014.2 -- 52
2020-06-21 17:00:00 28.3 7 Sudeste 17 Este 0 1014.7 -- 51
2020-06-21 16:00:00 28.1 9 Sudeste 21 Este 0 1015.1 -- 53
2020-06-21 15:00:00 28 10 Sudeste 22 Este 0 1015.5 -- 53
2020-06-21 14:00:00 27.7 9 Este 21 Sudeste 0 1015.9 -- 58
2020-06-21 13:00:00 27.1 10 Sudeste 19 Este 0 1016.3 -- 62
2020-06-21 12:00:00 25.3 7 Este 17 Nordeste 0 1016.4 -- 72
2020-06-21 11:00:00 24.4 4 Este 11 Este 0 1016.2 -- 73
2020-06-21 10:00:00 22.9 5 Este 11 Sudeste 0 1016.3 -- 80
2020-06-21 09:00:00 22.3 5 Norte 13 Norte 0 1015.9 -- 84
2020-06-21 08:00:00 21.5 6 Nordeste 10 Norte 0 1015.7 -- 88
2020-06-21 07:00:00 19.8 2 Norte 5 Noroeste 0 1015 -- 90
2020-06-21 06:00:00 19.9 2 Noroeste 4 Norte 0 1014.4 -- 89
2020-06-21 05:00:00 20.2 3 Noroeste 5 Noroeste 0 1014.1 -- 89
2020-06-21 04:00:00 20.8 2 Noroeste 5 Noroeste 0 1014.2 -- 88
2020-06-21 03:00:00 21.1 0 Calma 3 Noroeste 0 1014.4 -- 87
2020-06-21 02:00:00 21.4 0 Calma 6 Sudoeste 0 1015 -- 87
2020-06-21 01:00:00 21.8 4 Sudoeste 5 Sudoeste 0 1015.3 -- 85
2020-06-21 00:00:00 22.3 4 Sur 7 Sudoeste 0 1015.4 -- 83
2020-06-20 23:00:00 22.8 3 Nordeste 6 Este 0 1015.1 -- 81
2020-06-20 22:00:00 23.4 4 Sudeste 10 Este 0 1014.4 -- 78
2020-06-20 21:00:00 24.1 6 Este 14 Este 0 1014.1 -- 75
2020-06-20 20:00:00 25.1 7 Este 15 Este 0 1013.8 -- 70
2020-06-20 19:00:00 25.9 8 Este 21 Sudeste 0 1013.9 -- 66
2020-06-20 18:00:00 26.2 10 Este 21 Sudeste 0 1014.1 -- 63
2020-06-20 17:00:00 26.5 11 Este 24 Sudeste 0 1014.5 -- 63
2020-06-20 16:00:00 26.6 14 Este 26 Sudeste 0 1014.8 -- 63
2020-06-20 15:00:00 27.1 10 Este 23 Este 0 1015.1 -- 59
2020-06-20 14:00:00 26.8 9 Este 24 Este 0 1015.4 -- 58
2020-06-20 13:00:00 26.3 9 Este 20 Este 0 1015.7 -- 60
2020-06-20 12:00:00 25.8 8 Este 17 Este 0 1015.6 -- 64
2020-06-20 11:00:00 25.5 6 Este 14 Sudeste 0 1015.3 -- 63
2020-06-20 10:00:00 24.7 4 Este 9 Este 0 1015.2 -- 68
2020-06-20 09:00:00 22.2 3 Oeste 6 Oeste 0 1015.1 -- 82
2020-06-20 08:00:00 19.7 3 Noroeste 9 Noroeste 0 1014.6 -- 89
2020-06-20 07:00:00 18.8 5 Noroeste 8 Noroeste 0 1014.4 -- 90
2020-06-20 06:00:00 19.1 3 Noroeste 6 Norte 0 1014.3 -- 90
2020-06-20 05:00:00 19 4 Noroeste 8 Noroeste 0 1014.1 -- 89
2020-06-20 04:00:00 19.5 4 Noroeste 6 Noroeste 0 1014 -- 89
2020-06-20 03:00:00 19.9 0 Calma 5 Norte 0 1014.3 -- 88
2020-06-20 02:00:00 20.3 2 Noroeste 8 Noroeste 0 1014.9 -- 86
2020-06-20 01:00:00 21 3 Noroeste 6 Norte 0 1015.2 -- 84
2020-06-20 00:00:00 21.5 3 Noroeste 4 Norte 0 1015.2 -- 85
2020-06-19 23:00:00 21.8 2 Este 7 Nordeste 0 1015 -- 84
2020-06-19 22:00:00 22 2 Nordeste 8 Este 0 1014.2 -- 84
2020-06-19 21:00:00 22.5 5 Este 11 Nordeste 0 1013.8 -- 81
2020-06-19 20:00:00 22.9 5 Este 15 Sudeste 0 1013.4 -- 78
2020-06-19 19:00:00 23.4 5 Nordeste 19 Sudeste 0 1013.1 -- 74
2020-06-19 18:00:00 22.9 10 Este 19 Sudeste 0 1013.3 -- 75
2020-06-19 17:00:00 23.6 6 Este 23 Sudeste 0 1013.4 -- 70
2020-06-19 16:00:00 25.4 13 Sudeste 23 Este 0 1013.2 -- 63
2020-06-19 15:00:00 24.4 11 Este 25 Sudeste 0 1013.1 -- 65
2020-06-19 14:00:00 24.3 10 Este 19 Este 0 1013.3 -- 67
2020-06-19 13:00:00 23.3 10 Este 19 Este 0 1013.5 -- 72
2020-06-19 12:00:00 23.4 9 Este 19 Sudeste 0 1013.2 -- 69
2020-06-19 11:00:00 23.4 8 Sudeste 15 Este 0 1012.9 -- 67
2020-06-19 10:00:00 22.3 4 Nordeste 12 Norte 0 1012.7 -- 73
2020-06-19 09:00:00 20.8 4 Noroeste 9 Oeste 0 1012.7 -- 78
2020-06-19 08:00:00 19.4 3 Noroeste 9 Noroeste 0 1012.5 -- 83
2020-06-19 07:00:00 18.7 4 Noroeste 7 Noroeste 0 1012.1 -- 84
2020-06-19 06:00:00 18.5 5 Noroeste 7 Noroeste 0 1011.9 -- 84
2020-06-19 05:00:00 18.5 4 Noroeste 9 Noroeste 0 1011.6 -- 85
2020-06-19 04:00:00 18.6 2 Noroeste 7 Noroeste 0 1011.8 -- 84
2020-06-19 03:00:00 19.1 0 Calma 11 Noroeste 0 1011.6 -- 82
2020-06-19 02:00:00 19.8 4 Oeste 6 Oeste 0 1011.5 -- 79
2020-06-19 01:00:00 19.5 3 Norte 8 Noroeste 0 1011.5 -- 80
2020-06-19 00:00:00 20.5 3 Nordeste 8 Norte 0 1011.3 -- 76
2020-06-18 23:00:00 20.6 4 Nordeste 8 Nordeste 0 1010.6 -- 77
2020-06-18 22:00:00 20.9 3 Nordeste 10 Nordeste 0 1010.1 -- 76
2020-06-18 21:00:00 21.4 5 Nordeste 15 Este 0 1009.7 -- 76
2020-06-18 20:00:00 22.1 6 Este 21 Este 0 1009.1 -- 72
2020-06-18 19:00:00 22.6 7 Nordeste 22 Este 0 1008.7 -- 69
2020-06-18 18:00:00 22.8 8 Este 21 Este 0 1008.8 -- 68
2020-06-18 17:00:00 23 8 Este 23 Este 0 1008.8 -- 66
2020-06-18 16:00:00 23.5 10 Este 28 Sudeste 0 1009.1 -- 64
2020-06-18 15:00:00 24.1 12 Este 29 Este 0 1009.3 -- 60
2020-06-18 14:00:00 24.5 12 Este 28 Este 0 1009.3 -- 58
2020-06-18 13:00:00 23.9 9 Este 29 Este 0 1009.5 -- 61
2020-06-18 12:00:00 24 14 Este 27 Este 0 1009.4 -- 59
2020-06-18 11:00:00 23.5 6 Este 18 Este 0 1009.3 -- 55
2020-06-18 10:00:00 21.6 5 Nordeste 10 Nordeste 0 1009.4 -- 64
2020-06-18 09:00:00 20.6 4 Norte 8 Norte 0 1009 -- 64
2020-06-18 08:00:00 19.4 4 Noroeste 7 Noroeste 0 1008.5 -- 72
2020-06-18 07:00:00 18.9 3 Norte 6 Noroeste 0 1008.1 -- 73
2020-06-18 06:00:00 18.6 3 Noroeste 6 Noroeste 0 1008 -- 77
2020-06-18 05:00:00 18.5 3 Noroeste 9 Noroeste 0 1008.2 -- 77
2020-06-18 04:00:00 18.7 4 Noroeste 10 Noroeste 0 1008.6 -- 76
2020-06-18 03:00:00 18.4 5 Oeste 9 Oeste 0 1008.9 -- 80
2020-06-18 02:00:00 18.2 5 Noroeste 14 Oeste 0 1009.6 -- 81
2020-06-18 01:00:00 18.7 9 Oeste 15 Oeste 0 1010.1 -- 80
2020-06-18 00:00:00 18.9 4 Noroeste 11 Noroeste 0 1010.2 -- 78
2020-06-17 23:00:00 20.2 5 Noroeste 10 Noroeste 0 1010.2 -- 70
2020-06-17 22:00:00 20.9 2 Noroeste 8 Noroeste 0 1009.8 -- 60
2020-06-17 21:00:00 21.5 5 Sudeste 10 Este 0 1009.6 -- 55
2020-06-17 20:00:00 21.7 4 Nordeste 13 Nordeste 0 1009.3 -- 52
2020-06-17 19:00:00 21.9 6 Nordeste 22 Sudeste 0 1009.5 -- 56
2020-06-17 18:00:00 22.1 5 Este 19 Sudeste 0 1009.4 -- 55
2020-06-17 17:00:00 23.1 8 Este 21 Este 0 1009.5 -- 53
2020-06-17 16:00:00 23.9 9 Este 24 Este 0 1009.6 -- 53
2020-06-17 15:00:00 23.6 8 Este 23 Este 0 1009.7 -- 54
2020-06-17 14:00:00 23.6 9 Este 26 Este 0 1009.9 -- 58
2020-06-17 13:00:00 23.1 13 Este 21 Este 0 1010.3 -- 57
2020-06-17 12:00:00 23.7 10 Este 23 Este 0 1010.2 -- 54
2020-06-17 11:00:00 23.4 10 Este 23 Sudeste 0 1010.5 -- 58
2020-06-17 10:00:00 22.2 10 Este 18 Este 0 1010.5 -- 66
2020-06-17 09:00:00 19.6 4 Norte 8 Noroeste 0 1010.5 -- 75
2020-06-17 08:00:00 18.3 3 Noroeste 9 Noroeste 0 1010.2 -- 73
2020-06-17 07:00:00 17.3 3 Noroeste 10 Oeste 0 1009.7 -- 78
2020-06-17 06:00:00 17.8 4 Oeste 8 Oeste 0 1009.4 -- 79
2020-06-17 05:00:00 18.4 2 Norte 11 Noroeste 0 1009.3 -- 79
2020-06-17 04:00:00 19 5 Noroeste 14 Noroeste 0 1009.9 -- 81
2020-06-17 03:00:00 18.9 6 Noroeste 17 Oeste 0 1010.3 -- 83
2020-06-17 02:00:00 19.5 8 Oeste 12 Oeste 0 1010.8 -- 82
2020-06-17 01:00:00 19.2 4 Noroeste 9 Noroeste 0 1011.4 -- 84
2020-06-17 00:00:00 19.5 4 Noroeste 9 Noroeste 0 1011.8 -- 82
2020-06-16 23:00:00 19.4 2 Sudoeste 8 Sur 0 1011.6 -- 82
2020-06-16 22:00:00 20.4 3 Sur 7 Sudeste 0 1011.1 -- 76
2020-06-16 21:00:00 20.7 3 Sur 10 Sudeste 0 1010.9 -- 73
2020-06-16 20:00:00 21.2 5 Sur 11 Norte 0 1010.3 -- 71
2020-06-16 19:00:00 20.6 5 Nordeste 23 Nordeste 0 1010.4 -- 72
2020-06-16 18:00:00 20.3 9 Nordeste 23 Norte 0 1010.8 -- 72
2020-06-16 17:00:00 19.3 10 Nordeste 26 Este 0 1011 -- 80
2020-06-16 16:00:00 19.5 8 Nordeste 32 Nordeste 3 1011.1 -- 88
2020-06-16 15:00:00 22.9 11 Nordeste 31 Este 0 1011 -- 65
2020-06-16 14:00:00 25.2 13 Este 33 Este 0 1010.8 -- 56
2020-06-16 13:00:00 25.7 14 Este 32 Este 0 1011.1 -- 55
2020-06-16 12:00:00 25.8 12 Este 24 Nordeste 0 1011.6 -- 54
2020-06-16 11:00:00 24.6 9 Este 22 Sudeste 0 1011.9 -- 61
2020-06-16 10:00:00 24 7 Nordeste 18 Nordeste 0 1012.4 -- 66
2020-06-16 09:00:00 22.6 10 Nordeste 19 Norte 0 1012.5 -- 71
2020-06-16 08:00:00 20.7 4 Noroeste 12 Noroeste 0 1012.4 -- 72
2020-06-16 07:00:00 20.4 6 Noroeste 12 Noroeste 0 1011.9 -- 69
2020-06-16 06:00:00 20.6 7 Nordeste 15 Norte 0 1011.5 -- 82
2020-06-16 05:00:00 19.6 0 Calma 14 Oeste 0 1011.3 -- 70
2020-06-16 04:00:00 19.9 7 Oeste 15 Oeste 0 1011.3 -- 67
2020-06-16 03:00:00 19.8 8 Oeste 18 Oeste 0 1011.4 -- 68
2020-06-16 02:00:00 19.8 9 Oeste 17 Oeste 0 1011.8 -- 70
2020-06-16 01:00:00 20.2 8 Noroeste 17 Noroeste 0 1012.3 -- 73
2020-06-16 00:00:00 21 4 Noroeste 8 Oeste 0 1012.8 -- 76
2020-06-15 23:00:00 21.3 4 Sur 9 Sur 0 1013.2 -- 80
2020-06-15 22:00:00 22.1 0 Calma 7 Este 0 1012.5 -- 71
2020-06-15 21:00:00 23 4 Nordeste 13 Este 0 1012.7 -- 65
2020-06-15 20:00:00 23.8 6 Este 17 Este 0 1012.7 -- 63
2020-06-15 19:00:00 24.4 10 Sudeste 21 Sudeste 0 1012.6 -- 62
2020-06-15 18:00:00 25.1 11 Sudeste 23 Este 0 1012.9 -- 59
2020-06-15 17:00:00 25.5 14 Este 28 Este 0 1012.9 -- 57
2020-06-15 16:00:00 26.2 13 Este 27 Sudeste 0 1013.1 -- 50
2020-06-15 15:00:00 26.7 10 Este 27 Sudeste 0 1013.3 -- 41
2020-06-15 14:00:00 26.3 8 Este 24 Este 0 1013.9 -- 41
2020-06-15 13:00:00 25.9 12 Este 24 Este 0 1014.3 -- 49
2020-06-15 12:00:00 26 10 Este 25 Sudeste 0 1014.3 -- 48
2020-06-15 11:00:00 25.2 9 Este 21 Sudeste 0 1014.3 -- 50
2020-06-15 10:00:00 24.4 7 Este 15 Este 0 1014.4 -- 54
2020-06-15 09:00:00 22.7 6 Este 13 Este 0 1014 -- 68
2020-06-15 08:00:00 19.4 5 Noroeste 11 Noroeste 0 1013.5 -- 67
2020-06-15 07:00:00 18.5 4 Noroeste 8 Noroeste 0 1013.2 -- 72
2020-06-15 06:00:00 18.4 4 Noroeste 8 Noroeste 0 1012.7 -- 80
2020-06-15 05:00:00 18.3 3 Oeste 9 Sudoeste 0 1012.5 -- 77
2020-06-15 04:00:00 19 4 Noroeste 13 Oeste 0 1012.2 -- 72
2020-06-15 03:00:00 18.7 6 Noroeste 10 Noroeste 0 1012.4 -- 67
2020-06-15 02:00:00 19.8 4 Noroeste 6 Noroeste 0 1012.6 -- 61
2020-06-15 01:00:00 21.1 3 Noroeste 8 Nordeste 0 1012.8 -- 57
2020-06-15 00:00:00 22 3 Nordeste 9 Norte 0 1012.8 -- 53
2020-06-14 23:00:00 22.3 3 Nordeste 7 Este 0 1012.5 -- 53
2020-06-14 22:00:00 22.8 4 Este 10 Este 0 1012.1 -- 46
2020-06-14 21:00:00 24.1 3 Este 11 Nordeste 0 1011.6 -- 32
2020-06-14 20:00:00 24.7 6 Este 15 Sudeste 0 1011.4 -- 36
2020-06-14 19:00:00 25.3 5 Sudeste 19 Este 0 1011.1 -- 32
2020-06-14 18:00:00 25.6 9 Sudeste 21 Sudeste 0 1011 -- 43
2020-06-14 17:00:00 25.6 10 Sudeste 22 Este 0 1011.1 -- 52
2020-06-14 16:00:00 25.7 12 Sudeste 22 Sudeste 0 1011.5 -- 45
2020-06-14 15:00:00 25.9 11 Este 24 Este 0 1011.7 -- 43
2020-06-14 14:00:00 26 12 Este 28 Sudeste 0 1012.2 -- 37
2020-06-14 13:00:00 24.9 10 Este 24 Este 0 1012.2 -- 49
2020-06-14 12:00:00 24.2 7 Este 19 Nordeste 0 1012.4 -- 48
2020-06-14 11:00:00 23.8 6 Nordeste 18 Este 0 1012.4 -- 46
2020-06-14 10:00:00 23.9 5 Este 13 Este 0 1012.3 -- 41
2020-06-14 09:00:00 20.8 6 Oeste 15 Oeste 0 1012 -- 38
2020-06-14 08:00:00 18.3 6 Noroeste 19 Oeste 0 1011.5 -- 47
2020-06-14 07:00:00 17.7 8 Oeste 16 Noroeste 0 1011.3 -- 49
2020-06-14 06:00:00 17.6 10 Oeste 17 Noroeste 0 1010.7 -- 52
2020-06-14 05:00:00 18 7 Noroeste 13 Oeste 0 1010.3 -- 51
2020-06-14 04:00:00 18.1 5 Oeste 10 Oeste 0 1010.6 -- 53
2020-06-14 03:00:00 18.7 6 Oeste 10 Oeste 0 1010.8 -- 55
2020-06-14 02:00:00 19.2 5 Noroeste 11 Noroeste 0 1011.1 -- 55
2020-06-14 01:00:00 19.9 4 Noroeste 8 Noroeste 0 1011.3 -- 57
2020-06-14 00:00:00 21.3 5 Norte 15 Nordeste 0 1011.1 -- 59
2020-06-13 23:00:00 21.5 6 Nordeste 13 Nordeste 0 1010.5 -- 59
2020-06-13 22:00:00 22.2 5 Este 11 Este 0 1009.7 -- 54
2020-06-13 21:00:00 23.3 5 Sudeste 19 Nordeste 0 1009.4 -- 49
2020-06-13 20:00:00 24.7 9 Sur 24 Este 0 1008.6 -- 38
2020-06-13 19:00:00 25.3 12 Sudeste 25 Este 0 1007.9 -- 37
2020-06-13 18:00:00 26.4 13 Sudeste 30 Sudeste 0 1007.3 -- 29
2020-06-13 17:00:00 27.9 13 Sudeste 29 Este 0 1007.3 -- 18
2020-06-13 16:00:00 28.8 12 Sudeste 29 Sudeste 0 1007.3 -- 14
2020-06-13 15:00:00 28.4 16 Sur 27 Sur 0 1007.5 -- 13
2020-06-13 14:00:00 27.4 13 Sudeste 30 Sudeste 0 1007.6 -- 12
2020-06-13 13:00:00 27 12 Sudeste 26 Este 0 1007.5 -- 14
2020-06-13 12:00:00 26.6 5 Este 17 Sur 0 1007.2 -- 12
2020-06-13 11:00:00 24.9 5 Oeste 18 Sudoeste 0 1006.8 -- 13
2020-06-13 10:00:00 23.9 8 Norte 22 Noroeste 0 1006 -- 17
2020-06-13 09:00:00 21.9 13 Oeste 26 Oeste 0 1005.9 -- 23
2020-06-13 08:00:00 19.9 15 Oeste 28 Oeste 0 1005.4 -- 25
2020-06-13 07:00:00 19.2 13 Oeste 25 Oeste 0 1004.8 -- 28
2020-06-13 06:00:00 19.4 7 Oeste 26 Oeste 0 1003.9 -- 27
2020-06-13 05:00:00 19.3 10 Sudoeste 19 Sudoeste 0 1003.1 -- 27
2020-06-13 04:00:00 20 8 Oeste 24 Oeste 0 1002.6 -- 25
2020-06-13 03:00:00 20.1 7 Noroeste 15 Norte 0 1002.6 -- 23
2020-06-13 02:00:00 19.8 5 Noroeste 15 Noroeste 0 1003 -- 26
2020-06-13 01:00:00 21.2 10 Oeste 23 Oeste 0 1002.6 -- 22
2020-06-13 00:00:00 22.6 9 Oeste 21 Sudoeste 0 1002 -- 18
2020-06-12 23:00:00 23.9 13 Sudoeste 27 Sudoeste 0 1001.6 -- 14
2020-06-12 22:00:00 25 13 Sudoeste 31 Sudoeste 0 1000.5 -- 11
2020-06-12 21:00:00 26.5 17 Sudoeste 34 Sudoeste 0 999.4 -- 8
2020-06-12 20:00:00 27.9 19 Sudoeste 39 Sudoeste 0 998.4 -- 7
2020-06-12 19:00:00 28.5 19 Sudoeste 41 Sur 0 997.7 -- 5
2020-06-12 18:00:00 29 18 Sudoeste 39 Sudoeste 0 997.5 -- 6
2020-06-12 17:00:00 29.5 20 Sudoeste 43 Sudoeste 0 997.4 -- 6
2020-06-12 16:00:00 29.1 22 Sudoeste 40 Oeste 0 997.6 -- 7
2020-06-12 15:00:00 28.9 17 Sudoeste 35 Sudoeste 0 997.8 -- 7
2020-06-12 14:00:00 28.3 18 Sudoeste 35 Sudoeste 0 998 -- 10
2020-06-12 13:00:00 27.2 17 Sudoeste 34 Oeste 0 998.4 -- 12
2020-06-12 12:00:00 25.8 15 Sudoeste 30 Oeste 0 998.8 -- 13
2020-06-12 11:00:00 24.9 11 Oeste 27 Oeste 0 998.8 -- 19
2020-06-12 10:00:00 23.9 8 Norte -- -- -- 998.8 -- 21
2020-06-12 09:00:00 22.7 7 Noroeste 18 Oeste 0 998.5 -- 24
2020-06-12 08:00:00 20.7 4 Norte 19 Oeste 0 998.2 -- 35
2020-06-12 07:00:00 21.3 11 Oeste 38 Oeste 0 997.5 -- 29
2020-06-12 06:00:00 21.9 17 Oeste 38 Oeste 0 996.8 -- 34
2020-06-12 05:00:00 21.7 10 Oeste 34 Oeste 0 996.2 -- 39
2020-06-12 04:00:00 20.9 8 Sudoeste 18 Sudoeste 0 996.3 -- 45
2020-06-12 03:00:00 19.6 7 Sudoeste 10 Sudoeste 0 996.2 -- 74
2020-06-12 02:00:00 20.3 2 Noroeste 8 Noroeste 0 996.3 -- 80
2020-06-12 01:00:00 21 3 Norte 6 Norte 0 996.4 -- 81
2020-06-12 00:00:00 21.6 2 Sudoeste 7 Sur 0 996.3 -- 76
2020-06-11 23:00:00 22.4 3 Este 11 Nordeste 0 996.2 -- 73
2020-06-11 22:00:00 23.3 6 Nordeste 17 Nordeste 0 995.6 -- 69
2020-06-11 21:00:00 25.1 4 Este 14 Sur 0 995.3 -- 59
2020-06-11 20:00:00 25.3 7 Sur 17 Sudoeste 0 995.4 -- 57
2020-06-11 19:00:00 25.4 6 Sur 32 Sur 0 995.6 -- 58
2020-06-11 18:00:00 25.2 17 Sur 37 Sur 0 995.9 -- 61
2020-06-11 17:00:00 27.6 19 Sur 41 Sur 0 996.7 -- 34
2020-06-11 16:00:00 28 23 Sur 42 Sur 0 997.5 -- 38
2020-06-11 15:00:00 28.5 18 Sur 39 Sur 0 998 -- 42
2020-06-11 14:00:00 27.8 21 Sur 38 Sur 0 998.7 -- 38
2020-06-11 13:00:00 25.2 7 Nordeste 22 Nordeste 0 999.5 -- 51
2020-06-11 12:00:00 25.7 12 Sudeste 27 Este 0 1000.6 -- 52
2020-06-11 11:00:00 25.2 6 Sudeste 17 Este 0 1001.4 -- 46
2020-06-11 10:00:00 23.1 9 Sudoeste 14 Sudoeste 0 1002.4 -- 53
2020-06-11 09:00:00 21.3 5 Oeste 11 Oeste 0 1003.3 -- 64
2020-06-11 08:00:00 19.1 6 Noroeste 12 Oeste 0 1003.7 -- 73
2020-06-11 07:00:00 18.3 5 Noroeste 9 Noroeste 0 1004.2 -- 75
2020-06-11 06:00:00 18.7 0 Calma 7 Noroeste 0 1004.5 -- 74
2020-06-11 05:00:00 18.9 4 Noroeste 8 Noroeste 0 1005.1 -- 74
2020-06-11 04:00:00 19.3 7 Oeste 14 Noroeste 0 1005.7 -- 72
2020-06-11 03:00:00 19.2 6 Oeste 16 Oeste 0 1006.4 -- 73
2020-06-11 02:00:00 19.6 8 Oeste 15 Oeste 0 1007.3 -- 72
2020-06-11 01:00:00 19.8 5 Oeste 10 Oeste 0 1007.7 -- 73
2020-06-11 00:00:00 20.2 5 Noroeste 8 Noroeste 0 1008.1 -- 69
2020-06-10 23:00:00 20.3 0 Calma 5 Sudoeste 0 1008.3 -- 72
2020-06-10 22:00:00 20.7 3 Sur 8 Sur 0 1008.2 -- 68
2020-06-10 21:00:00 21.5 7 Sur 12 Sudeste 0 1007.9 -- 60
2020-06-10 20:00:00 22.1 5 Sudeste 16 Sur 0 1008 -- 53
2020-06-10 19:00:00 23 6 Sur 18 Sur 0 1008 -- 45
2020-06-10 18:00:00 23.5 9 Sudeste 21 Sudeste 0 1008.1 -- 46
2020-06-10 17:00:00 24 9 Sudeste 22 Sudeste 0 1008.6 -- 43
2020-06-10 16:00:00 24.3 9 Sudeste 30 Sudeste 0 1008.9 -- 44
2020-06-10 15:00:00 23.2 13 Sudeste 28 Este 0 1009.4 -- 44
2020-06-10 14:00:00 24.1 14 Sudeste 26 Sudeste 0 1009.5 -- 37
2020-06-10 13:00:00 24.1 12 Sudeste 24 Sudeste 0 1010 -- 35
2020-06-10 12:00:00 25.2 13 Sudeste 23 Sudeste 0 1010 -- 29
2020-06-10 11:00:00 22.9 4 Noroeste 13 Norte 0 1010.3 -- 29
2020-06-10 10:00:00 21.1 6 Noroeste 19 Oeste 0 1010.8 -- 30
2020-06-10 09:00:00 19.5 14 Oeste 21 Oeste 0 1011.1 -- 36
2020-06-10 08:00:00 16.6 8 Oeste 22 Oeste 0 1011 -- 51
2020-06-10 07:00:00 16.6 12 Oeste 28 Oeste 0 1011 -- 48
2020-06-10 06:00:00 16.7 9 Oeste 23 Oeste 0 1010.7 -- 51
2020-06-10 05:00:00 16.2 13 Oeste 23 Oeste 0 1010.8 -- 60
2020-06-10 04:00:00 16.1 12 Oeste 19 Noroeste 0 1010.9 -- 66
2020-06-10 03:00:00 16.8 9 Oeste 16 Oeste 0 1011.3 -- 70
2020-06-10 02:00:00 17.8 5 Norte 9 Nordeste 0 1011.8 -- 56
2020-06-10 01:00:00 18.2 4 Noroeste 8 Oeste 0 1011.9 -- 76
2020-06-10 00:00:00 19 4 Noroeste 7 Norte 0 1011.9 -- 72
2020-06-09 23:00:00 19.3 2 Oeste 5 Sudoeste 0 1011.4 -- 71
2020-06-09 22:00:00 19.9 3 Sudoeste 10 Sur 0 1010.6 -- 66
2020-06-09 21:00:00 21 5 Sur 12 Sur 0 1010.3 -- 59
2020-06-09 20:00:00 21.9 8 Sur 19 Sur 0 1009.9 -- 54
2020-06-09 19:00:00 22.2 8 Sur 23 Sudeste 0 1009.5 -- 50
2020-06-09 18:00:00 23.7 11 Sudeste 22 Este 0 1009.7 -- 37
2020-06-09 17:00:00 24.8 12 Sudeste 24 Sudeste 0 1009.8 -- 34
2020-06-09 16:00:00 24.3 13 Este 26 Este 0 1009.9 -- 29
2020-06-09 15:00:00 24.3 10 Sudeste 26 Este 0 1010.2 -- 30
2020-06-09 14:00:00 24 13 Sudeste 24 Este 0 1010.7 -- 31
2020-06-09 13:00:00 23.7 12 Sudeste 29 Este 0 1010.9 -- 32
2020-06-09 12:00:00 23.8 5 Sudeste 13 Sudeste 0 1010.7 -- 23
2020-06-09 11:00:00 22.4 5 Oeste 15 Oeste 0 1010.7 -- 26
2020-06-09 10:00:00 20.6 8 Oeste 21 Oeste 0 1010.9 -- 35
2020-06-09 09:00:00 18.7 13 Oeste 23 Noroeste 0 1010.8 -- 44
2020-06-09 08:00:00 15.5 13 Oeste 20 Oeste 0 1010.8 -- 60
2020-06-09 07:00:00 14.5 10 Oeste 17 Oeste 0 1010.7 -- 61
2020-06-09 06:00:00 14.1 10 Oeste 19 Oeste 0 1010.7 -- 66
2020-06-09 05:00:00 14.5 8 Noroeste 15 Noroeste 0 1010.2 -- 66
2020-06-09 04:00:00 15.4 6 Noroeste 19 Oeste 0 1010.2 -- 69
2020-06-09 03:00:00 16.5 10 Oeste 20 Oeste 0 1010.5 -- 64
2020-06-09 02:00:00 15.5 6 Noroeste 12 Oeste 0 1010.5 -- 80
2020-06-09 01:00:00 15.9 5 Noroeste 11 Noroeste 0 1010.7 -- 81
2020-06-09 00:00:00 16.8 3 Noroeste 8 Norte 0 1010.5 -- 77